createdAt,value
2018-01-29T00:02:20.149Z,7.90
2018-01-29T00:04:48.512Z,7.90
2018-01-29T00:07:16.857Z,7.90
2018-01-29T00:09:45.337Z,7.90
2018-01-29T00:12:14.398Z,7.90
2018-01-29T00:14:43.503Z,7.90
2018-01-29T00:17:12.840Z,7.90
2018-01-29T00:19:42.358Z,7.90
2018-01-29T00:22:10.700Z,7.90
2018-01-29T00:24:40.793Z,7.90
2018-01-29T00:27:09.951Z,7.90
2018-01-29T00:29:38.293Z,7.90
2018-01-29T00:32:06.923Z,7.90
2018-01-29T00:34:35.276Z,7.90
2018-01-29T00:37:05.135Z,7.90
2018-01-29T00:39:33.876Z,7.90
2018-01-29T00:42:02.219Z,7.90
2018-01-29T00:44:30.857Z,7.90
2018-01-29T00:46:59.239Z,7.90
2018-01-29T00:49:27.621Z,7.90
2018-01-29T00:51:55.961Z,7.90
2018-01-29T00:54:26.222Z,7.90
2018-01-29T00:56:54.566Z,7.90
2018-01-29T00:59:22.904Z,7.90
2018-01-29T01:01:51.366Z,7.90
2018-01-29T01:04:19.711Z,7.90
2018-01-29T01:06:48.053Z,7.90
2018-01-29T01:09:17.203Z,7.90
2018-01-29T01:11:45.551Z,7.90
2018-01-29T01:14:13.952Z,7.90
2018-01-29T01:16:42.545Z,7.80
2018-01-29T01:19:10.882Z,7.80
2018-01-29T01:21:39.241Z,7.90
2018-01-29T01:24:08.408Z,7.80
2018-01-29T01:26:37.532Z,7.80
2018-01-29T01:29:06.649Z,7.80
2018-01-29T01:31:35.061Z,7.80
2018-01-29T01:34:03.395Z,7.80
2018-01-29T01:36:32.495Z,7.80
2018-01-29T01:39:02.245Z,7.70
2018-01-29T01:41:30.986Z,7.80
2018-01-29T01:44:00.869Z,7.70
2018-01-29T01:46:29.625Z,7.70
2018-01-29T01:48:57.968Z,7.70
2018-01-29T01:51:27.113Z,7.70
2018-01-29T01:53:55.589Z,7.70
2018-01-29T01:56:26.221Z,7.70
2018-01-29T01:58:54.588Z,7.70
2018-01-29T02:01:23.125Z,7.70
2018-01-29T02:03:52.439Z,7.70
2018-01-29T02:06:21.557Z,7.70
2018-01-29T02:08:49.942Z,7.70
2018-01-29T02:11:18.279Z,7.70
2018-01-29T02:13:47.393Z,7.70
2018-01-29T02:16:16.833Z,7.70
2018-01-29T02:18:45.166Z,7.70
2018-01-29T02:21:14.313Z,7.70
2018-01-29T02:23:42.770Z,7.60
2018-01-29T02:26:11.122Z,7.60
2018-01-29T02:28:41.033Z,7.60
2018-01-29T02:31:10.427Z,7.60
2018-01-29T02:33:39.530Z,7.60
2018-01-29T02:36:08.626Z,7.60
2018-01-29T02:38:37.774Z,7.60
2018-01-29T02:41:06.217Z,7.60
2018-01-29T02:43:34.804Z,7.60
2018-01-29T02:46:05.577Z,7.60
2018-01-29T02:48:33.927Z,7.60
2018-01-29T02:51:02.301Z,7.60
2018-01-29T02:53:31.320Z,7.60
2018-01-29T02:55:59.669Z,7.60
2018-01-29T02:58:28.874Z,7.60
2018-01-29T03:00:58.045Z,7.60
2018-01-29T03:03:27.169Z,7.60
2018-01-29T03:05:55.600Z,7.60
2018-01-29T03:08:24.261Z,7.60
2018-01-29T03:10:53.332Z,7.60
2018-01-29T03:13:21.673Z,7.60
2018-01-29T03:15:50.821Z,7.60
2018-01-29T03:18:19.964Z,7.60
2018-01-29T03:20:49.079Z,7.70
2018-01-29T03:23:18.613Z,7.60
2018-01-29T03:25:46.960Z,7.70
2018-01-29T03:28:15.297Z,7.70
2018-01-29T03:30:43.808Z,7.70
2018-01-29T03:33:12.880Z,7.70
2018-01-29T03:35:41.910Z,7.70
2018-01-29T03:38:11.346Z,7.70
2018-01-29T03:40:39.691Z,7.70
2018-01-29T03:43:08.831Z,7.70
2018-01-29T03:45:37.461Z,7.70
2018-01-29T03:48:07.297Z,7.70
2018-01-29T03:50:35.650Z,7.70
2018-01-29T03:53:04.851Z,7.70
2018-01-29T03:55:34.807Z,7.80
2018-01-29T03:58:03.138Z,7.70
2018-01-29T04:00:32.358Z,7.80
2018-01-29T04:03:00.697Z,7.80
2018-01-29T04:05:29.040Z,7.80
2018-01-29T04:07:59.042Z,7.70
2018-01-29T04:10:27.389Z,7.70
2018-01-29T04:12:56.513Z,7.80
2018-01-29T04:15:25.071Z,7.70
2018-01-29T04:17:54.168Z,7.80
2018-01-29T04:20:22.529Z,7.70
2018-01-29T04:22:51.886Z,7.80
2018-01-29T04:25:20.225Z,7.80
2018-01-29T04:27:49.349Z,7.80
2018-01-29T04:30:17.736Z,7.80
2018-01-29T04:32:46.132Z,7.90
2018-01-29T04:35:14.473Z,7.90
2018-01-29T04:37:43.195Z,7.90
2018-01-29T04:40:11.535Z,7.90
2018-01-29T04:42:39.903Z,8.00
2018-01-29T04:45:08.351Z,7.90
2018-01-29T04:47:37.056Z,8.00
2018-01-29T04:50:06.160Z,7.90
2018-01-29T04:52:35.410Z,7.90
2018-01-29T04:55:03.755Z,7.90
2018-01-29T04:57:32.139Z,8.00
2018-01-29T05:00:00.514Z,8.00
2018-01-29T05:02:28.855Z,8.00
2018-01-29T05:04:57.971Z,8.10
2018-01-29T05:07:26.686Z,8.10
2018-01-29T05:09:55.862Z,8.10
2018-01-29T05:12:24.194Z,8.20
2018-01-29T05:14:52.910Z,8.20
2018-01-29T05:17:22.016Z,8.20
2018-01-29T05:19:50.363Z,8.20
2018-01-29T05:22:19.083Z,8.20
2018-01-29T05:24:47.432Z,8.30
2018-01-29T05:27:17.285Z,8.20
2018-01-29T05:29:46.182Z,8.20
2018-01-29T05:32:14.517Z,8.30
2018-01-29T05:34:43.686Z,8.30
2018-01-29T05:37:31.000Z,8.30
2018-01-29T05:40:00.135Z,8.30
2018-01-29T05:42:29.277Z,8.30
2018-01-29T05:44:59.201Z,8.30
2018-01-29T05:47:27.540Z,8.30
2018-01-29T05:49:56.732Z,8.30
2018-01-29T05:52:27.456Z,8.40
2018-01-29T05:54:56.597Z,8.40
2018-01-29T05:57:25.810Z,8.30
2018-01-29T05:59:54.210Z,8.30
2018-01-29T06:02:22.567Z,8.40
2018-01-29T06:04:50.960Z,8.40
2018-01-29T06:07:19.471Z,8.40
2018-01-29T06:09:48.654Z,8.40
2018-01-29T06:12:17.012Z,8.40
2018-01-29T06:14:45.590Z,8.40
2018-01-29T06:17:14.681Z,8.40
2018-01-29T06:19:43.019Z,8.40
2018-01-29T06:22:11.497Z,8.50
2018-01-29T06:24:40.705Z,8.50
2018-01-29T06:27:09.067Z,8.50
2018-01-29T06:29:39.917Z,8.50
2018-01-29T06:32:08.259Z,8.40
2018-01-29T06:34:39.014Z,8.50
2018-01-29T06:37:08.463Z,8.50
2018-01-29T06:39:36.832Z,8.60
2018-01-29T06:42:05.212Z,8.60
2018-01-29T06:44:34.121Z,8.60
2018-01-29T06:47:03.264Z,8.60
2018-01-29T06:49:32.391Z,8.60
2018-01-29T06:52:01.014Z,8.60
2018-01-29T06:54:30.190Z,8.60
2018-01-29T06:56:58.549Z,8.70
2018-01-29T06:59:27.027Z,8.70
2018-01-29T07:01:55.362Z,8.70
2018-01-29T07:04:24.472Z,8.80
2018-01-29T07:06:53.733Z,8.80
2018-01-29T07:09:22.065Z,8.90
2018-01-29T07:11:51.962Z,8.80
2018-01-29T07:14:21.202Z,8.90
2018-01-29T07:16:49.539Z,8.90
2018-01-29T07:19:18.646Z,9.00
2018-01-29T07:21:47.246Z,9.00
2018-01-29T07:24:15.653Z,9.00
2018-01-29T07:26:44.024Z,9.10
2018-01-29T07:29:12.419Z,9.00
2018-01-29T07:31:41.609Z,9.00
2018-01-29T07:34:09.938Z,9.00
2018-01-29T07:36:40.209Z,9.10
2018-01-29T07:39:08.541Z,9.10
2018-01-29T07:41:36.882Z,9.10
2018-01-29T07:44:05.258Z,9.20
2018-01-29T07:46:33.595Z,9.10
2018-01-29T07:49:02.816Z,9.10
2018-01-29T07:51:31.618Z,9.30
2018-01-29T07:54:00.265Z,9.20
2018-01-29T07:56:30.205Z,9.20
2018-01-29T07:58:58.614Z,9.10
2018-01-29T08:01:26.985Z,9.20
2018-01-29T08:03:55.326Z,9.20
2018-01-29T08:06:23.925Z,9.20
2018-01-29T08:08:53.889Z,9.20
2018-01-29T08:11:23.008Z,9.20
2018-01-29T08:13:51.579Z,9.20
2018-01-29T08:16:21.598Z,9.20
2018-01-29T08:18:49.937Z,9.20
2018-01-29T08:21:18.592Z,9.30
2018-01-29T08:23:46.937Z,9.30
2018-01-29T08:26:17.585Z,9.30
2018-01-29T08:28:45.961Z,9.30
2018-01-29T08:31:14.306Z,9.40
2018-01-29T08:33:43.408Z,9.40
2018-01-29T08:36:12.049Z,9.40
2018-01-29T08:38:40.458Z,9.40
2018-01-29T08:41:08.804Z,9.40
2018-01-29T08:43:37.485Z,9.40
2018-01-29T08:46:07.504Z,9.50
2018-01-29T08:48:35.852Z,9.50
2018-01-29T08:51:04.373Z,9.50
2018-01-29T08:53:32.720Z,9.50
2018-01-29T08:56:01.480Z,9.50
2018-01-29T08:58:29.985Z,9.50
2018-01-29T09:00:58.340Z,9.50
2018-01-29T09:03:28.219Z,9.50
2018-01-29T09:05:56.681Z,9.50
2018-01-29T09:08:25.044Z,9.60
2018-01-29T09:10:54.140Z,9.50
2018-01-29T09:13:22.524Z,9.60
2018-01-29T09:15:52.736Z,9.60
2018-01-29T09:18:21.101Z,9.70
2018-01-29T09:20:49.797Z,9.60
2018-01-29T09:23:18.169Z,9.60
2018-01-29T09:25:46.617Z,9.60
2018-01-29T09:28:17.289Z,9.70
2018-01-29T09:30:45.633Z,9.70
2018-01-29T09:33:14.772Z,9.70
2018-01-29T09:35:43.926Z,9.60
2018-01-29T09:38:13.080Z,9.70
2018-01-29T09:40:42.332Z,9.70
2018-01-29T09:43:11.773Z,9.80
2018-01-29T09:45:40.133Z,9.80
2018-01-29T09:48:08.493Z,9.90
2018-01-29T09:50:37.962Z,9.80
2018-01-29T09:53:06.324Z,10.00
2018-01-29T09:55:34.660Z,9.90
2018-01-29T09:58:03.613Z,10.10
2018-01-29T10:00:32.799Z,10.00
2018-01-29T10:03:01.141Z,10.10
2018-01-29T10:05:30.585Z,10.10
2018-01-29T10:07:58.980Z,10.20
2018-01-29T10:10:27.361Z,10.20
2018-01-29T10:12:57.285Z,10.20
2018-01-29T10:15:26.441Z,10.30
2018-01-29T10:17:54.860Z,10.30
2018-01-29T10:20:24.026Z,10.30
2018-01-29T10:22:52.390Z,10.30
2018-01-29T10:25:20.734Z,10.30
2018-01-29T10:27:49.130Z,10.20
2018-01-29T10:30:18.265Z,10.50
2018-01-29T10:32:46.731Z,10.40
2018-01-29T10:35:15.208Z,10.50
2018-01-29T10:37:43.550Z,10.50
2018-01-29T10:40:11.973Z,10.50
2018-01-29T10:42:41.469Z,10.50
2018-01-29T10:45:09.897Z,10.60
2018-01-29T10:47:39.030Z,10.60
2018-01-29T10:50:08.514Z,10.60
2018-01-29T10:52:36.907Z,10.60
2018-01-29T10:55:06.033Z,10.60
2018-01-29T10:57:34.714Z,10.60
2018-01-29T11:00:03.738Z,10.60
2018-01-29T11:02:32.861Z,10.60
2018-01-29T11:05:01.249Z,10.70
2018-01-29T11:07:29.605Z,10.70
2018-01-29T11:09:58.007Z,10.70
2018-01-29T11:12:26.620Z,10.70
2018-01-29T11:14:55.036Z,10.70
2018-01-29T11:17:23.363Z,10.60
2018-01-29T11:19:52.148Z,10.70
2018-01-29T11:22:20.537Z,10.70
2018-01-29T11:24:49.800Z,10.70
2018-01-29T11:27:19.855Z,10.70
2018-01-29T11:29:49.136Z,10.70
2018-01-29T11:32:19.010Z,10.70
2018-01-29T11:34:48.274Z,10.70
2018-01-29T11:37:16.781Z,10.80
2018-01-29T11:39:45.173Z,10.70
2018-01-29T11:42:14.331Z,10.60
2018-01-29T11:44:43.851Z,10.60
2018-01-29T11:47:12.216Z,10.70
2018-01-29T11:49:40.616Z,10.60
2018-01-29T11:52:08.966Z,10.60
2018-01-29T11:54:37.348Z,10.70
2018-01-29T11:57:06.132Z,10.70
2018-01-29T11:59:34.494Z,10.60
2018-01-29T12:02:03.263Z,10.70
2018-01-29T12:04:31.779Z,10.70
2018-01-29T12:07:00.327Z,10.70
2018-01-29T12:09:28.671Z,10.70
2018-01-29T12:11:57.135Z,10.70
2018-01-29T12:14:26.195Z,10.60
2018-01-29T12:16:54.704Z,10.70
2018-01-29T12:19:23.391Z,10.80
2018-01-29T12:21:55.043Z,10.80
2018-01-29T12:24:23.438Z,10.70
2018-01-29T12:26:51.848Z,10.70
2018-01-29T12:29:20.992Z,10.70
2018-01-29T12:31:49.350Z,10.70
2018-01-29T12:34:17.759Z,10.80
2018-01-29T12:36:46.111Z,10.80
2018-01-29T12:39:15.488Z,10.80
2018-01-29T12:41:44.018Z,10.80
2018-01-29T12:44:12.372Z,10.90
2018-01-29T12:46:41.889Z,10.90
2018-01-29T12:49:10.461Z,10.90
2018-01-29T12:51:38.841Z,10.80
2018-01-29T12:54:07.209Z,10.90
2018-01-29T12:56:35.630Z,10.90
2018-01-29T12:59:06.567Z,10.90
2018-01-29T13:01:34.943Z,10.80
2018-01-29T13:04:03.726Z,10.80
2018-01-29T13:06:32.070Z,10.80
2018-01-29T13:09:00.428Z,10.80
2018-01-29T13:11:29.627Z,10.60
2018-01-29T13:13:58.755Z,10.70
2018-01-29T13:16:27.153Z,10.70
2018-01-29T13:18:55.726Z,10.70
2018-01-29T13:21:24.085Z,10.70
2018-01-29T13:23:54.351Z,10.60
2018-01-29T13:26:22.817Z,10.70
2018-01-29T13:28:51.179Z,10.70
2018-01-29T13:31:19.671Z,10.70
2018-01-29T13:33:48.370Z,10.70
2018-01-29T13:36:17.481Z,10.60
2018-01-29T13:38:45.838Z,10.60
2018-01-29T13:41:14.428Z,10.60
2018-01-29T13:43:42.807Z,10.60
2018-01-29T13:46:11.177Z,10.60
2018-01-29T13:48:40.675Z,10.60
2018-01-29T13:51:09.024Z,10.60
2018-01-29T13:53:37.377Z,10.60
2018-01-29T13:56:06.703Z,10.50
2018-01-29T13:58:35.100Z,10.50
2018-01-29T14:01:04.246Z,10.50
2018-01-29T14:03:33.657Z,10.50
2018-01-29T14:06:02.391Z,10.50
2018-01-29T14:08:30.750Z,10.50
2018-01-29T14:11:00.321Z,10.40
2018-01-29T14:13:30.483Z,10.40
2018-01-29T14:15:58.914Z,10.40
2018-01-29T14:18:27.375Z,10.40
2018-01-29T14:20:55.756Z,10.50
2018-01-29T14:23:25.098Z,10.40
2018-01-29T14:25:54.759Z,10.40
2018-01-29T14:28:23.708Z,10.50
2018-01-29T14:30:52.095Z,10.50
2018-01-29T14:33:20.591Z,10.40
2018-01-29T14:35:48.947Z,10.50
2018-01-29T14:38:18.933Z,10.40
2018-01-29T14:40:47.388Z,10.40
2018-01-29T14:43:15.746Z,10.40
2018-01-29T14:45:44.828Z,10.40
2018-01-29T14:48:13.435Z,10.40
2018-01-29T14:50:42.746Z,10.40
2018-01-29T14:53:11.097Z,10.30
2018-01-29T14:55:39.607Z,10.40
2018-01-29T14:58:07.962Z,10.30
2018-01-29T15:00:36.345Z,10.30
2018-01-29T15:03:05.978Z,10.40
2018-01-29T15:05:34.349Z,10.30
2018-01-29T15:08:02.893Z,10.20
2018-01-29T15:10:31.644Z,10.30
2018-01-29T15:13:00.048Z,10.40
2018-01-29T15:15:29.192Z,10.20
2018-01-29T15:17:57.898Z,10.20
2018-01-29T15:20:26.285Z,10.30
2018-01-29T15:22:54.682Z,10.20
2018-01-29T15:25:23.942Z,10.10
2018-01-29T15:27:53.275Z,10.10
2018-01-29T15:30:22.389Z,10.10
2018-01-29T15:32:50.883Z,10.10
2018-01-29T15:35:19.267Z,10.20
2018-01-29T15:37:47.639Z,10.10
2018-01-29T15:40:17.174Z,10.10
2018-01-29T15:42:45.521Z,10.10
2018-01-29T15:45:13.898Z,10.10
2018-01-29T15:47:42.390Z,10.20
2018-01-29T15:50:10.742Z,10.20
2018-01-29T15:52:40.758Z,10.20
2018-01-29T15:55:09.956Z,10.20
2018-01-29T15:57:39.086Z,10.20
2018-01-29T16:00:07.448Z,10.20
2018-01-29T16:02:35.923Z,10.20
2018-01-29T16:05:04.445Z,10.20
2018-01-29T16:07:32.796Z,10.20
2018-01-29T16:10:01.676Z,10.10
2018-01-29T16:12:30.036Z,10.10
2018-01-29T16:14:59.167Z,10.20
2018-01-29T16:17:28.434Z,10.30
2018-01-29T16:19:56.800Z,10.20
2018-01-29T16:22:25.915Z,10.20
2018-01-29T16:24:54.439Z,10.20
2018-01-29T16:27:22.837Z,10.20
2018-01-29T16:29:53.694Z,10.10
2018-01-29T16:32:23.068Z,10.10
2018-01-29T16:34:51.424Z,10.10
2018-01-29T16:37:20.891Z,10.10
2018-01-29T16:39:49.506Z,10.00
2018-01-29T16:42:18.655Z,10.10
2018-01-29T16:44:47.770Z,10.10
2018-01-29T16:47:16.196Z,10.10
2018-01-29T16:49:44.556Z,10.10
2018-01-29T16:52:12.903Z,10.10
2018-01-29T16:54:42.902Z,10.10
2018-01-29T16:57:11.247Z,10.10
2018-01-29T16:59:39.607Z,10.10
2018-01-29T17:02:08.068Z,10.00
2018-01-29T17:04:36.419Z,10.00
2018-01-29T17:07:05.604Z,10.00
2018-01-29T17:09:34.333Z,9.90
2018-01-29T17:12:02.951Z,10.00
2018-01-29T17:14:31.300Z,10.10
2018-01-29T17:16:59.911Z,10.00
2018-01-29T17:19:29.131Z,10.00
2018-01-29T17:21:57.503Z,10.00
2018-01-29T17:24:25.905Z,10.00
2018-01-29T17:26:54.344Z,10.00
2018-01-29T17:29:22.688Z,10.00
2018-01-29T17:31:52.338Z,10.00
2018-01-29T17:34:20.708Z,10.00
2018-01-29T17:36:49.068Z,10.00
2018-01-29T17:39:17.505Z,10.00
2018-01-29T17:41:45.847Z,9.90
2018-01-29T17:44:14.197Z,9.90
2018-01-29T17:46:42.581Z,9.90
2018-01-29T17:49:10.925Z,9.90
2018-01-29T17:51:40.032Z,9.90
2018-01-29T17:54:09.187Z,9.80
2018-01-29T17:56:39.211Z,9.70
2018-01-29T17:59:07.554Z,9.70
2018-01-29T18:01:37.108Z,9.60
2018-01-29T18:04:05.463Z,9.70
2018-01-29T18:06:33.832Z,9.50
2018-01-29T18:09:02.428Z,9.50
2018-01-29T18:11:30.901Z,9.40
2018-01-29T18:13:59.525Z,9.40
2018-01-29T18:16:30.054Z,9.40
2018-01-29T18:18:59.181Z,9.30
2018-01-29T18:21:28.315Z,9.30
2018-01-29T18:23:56.794Z,9.30
2018-01-29T18:26:25.145Z,9.10
2018-01-29T18:28:53.504Z,9.00
2018-01-29T18:31:22.023Z,8.90
2018-01-29T18:33:51.123Z,8.90
2018-01-29T18:36:19.530Z,8.70
2018-01-29T18:38:48.009Z,8.60
2018-01-29T18:41:16.360Z,8.80
2018-01-29T18:43:44.706Z,8.60
2018-01-29T18:46:13.884Z,8.50
2018-01-29T18:48:42.985Z,8.40
2018-01-29T18:51:11.329Z,8.40
2018-01-29T18:53:39.887Z,8.40
2018-01-29T18:56:08.252Z,8.30
2018-01-29T18:58:36.800Z,8.30
2018-01-29T19:01:05.544Z,8.20
2018-01-29T19:03:33.918Z,8.20
2018-01-29T19:06:02.276Z,8.20
2018-01-29T19:08:30.915Z,8.00
2018-01-29T19:11:00.748Z,8.00
2018-01-29T19:13:29.096Z,8.00
2018-01-29T19:15:58.875Z,8.00
2018-01-29T19:18:27.224Z,7.90
2018-01-29T19:20:55.572Z,8.00
2018-01-29T19:23:26.371Z,7.90
2018-01-29T19:25:54.705Z,7.90
2018-01-29T19:28:23.051Z,7.80
2018-01-29T19:30:51.530Z,7.80
2018-01-29T19:33:19.903Z,7.80
2018-01-29T19:35:49.053Z,7.80
2018-01-29T19:38:17.765Z,7.80
2018-01-29T19:40:46.160Z,7.80
2018-01-29T19:43:14.522Z,7.80
2018-01-29T19:45:43.307Z,7.70
2018-01-29T19:48:12.460Z,7.80
2018-01-29T19:50:41.580Z,7.70
2018-01-29T19:53:09.964Z,7.70
2018-01-29T19:55:38.304Z,7.70
2018-01-29T19:58:07.417Z,7.70
2018-01-29T20:00:39.850Z,7.70
2018-01-29T20:03:08.190Z,7.70
2018-01-29T20:05:36.537Z,7.70
2018-01-29T20:08:05.770Z,7.70
2018-01-29T20:10:34.106Z,7.70
2018-01-29T20:13:03.293Z,7.70
2018-01-29T20:15:31.675Z,7.70
2018-01-29T20:18:00.279Z,7.70
2018-01-29T20:20:28.623Z,7.70
2018-01-29T20:22:57.663Z,7.70
2018-01-29T20:25:26.020Z,7.70
2018-01-29T20:27:55.148Z,7.80
2018-01-29T20:30:23.597Z,7.70
2018-01-29T20:32:52.711Z,7.80
2018-01-29T20:35:21.053Z,7.80
2018-01-29T20:37:50.549Z,7.80
2018-01-29T20:40:18.896Z,7.80
2018-01-29T20:42:47.271Z,7.90
2018-01-29T20:45:15.866Z,7.80
2018-01-29T20:47:44.215Z,7.90
2018-01-29T20:50:12.560Z,7.90
2018-01-29T20:52:41.765Z,8.00
2018-01-29T20:55:10.141Z,8.00
2018-01-29T20:57:39.257Z,8.00
2018-01-29T21:00:07.885Z,8.00
2018-01-29T21:02:36.404Z,8.10
2018-01-29T21:05:05.550Z,8.10
2018-01-29T21:07:33.937Z,8.10
2018-01-29T21:10:02.323Z,8.10
2018-01-29T21:12:30.678Z,8.30
2018-01-29T21:14:59.444Z,8.50
2018-01-29T21:17:27.779Z,8.70
2018-01-29T21:19:56.309Z,8.70
2018-01-29T21:22:25.029Z,8.80
2018-01-29T21:24:53.380Z,8.80
2018-01-29T21:27:22.559Z,8.80
2018-01-29T21:29:51.089Z,8.80
2018-01-29T21:32:19.451Z,8.80
2018-01-29T21:34:47.796Z,8.70
2018-01-29T21:37:16.251Z,8.70
2018-01-29T21:39:44.647Z,8.70
2018-01-29T21:42:13.770Z,8.60
2018-01-29T21:44:42.277Z,8.60
2018-01-29T21:47:10.616Z,8.50
2018-01-29T21:49:38.971Z,8.40
2018-01-29T21:52:09.843Z,8.10
2018-01-29T21:54:38.191Z,8.10
2018-01-29T21:57:07.311Z,7.90
2018-01-29T21:59:35.992Z,7.90
2018-01-29T22:02:04.343Z,7.90
2018-01-29T22:04:33.509Z,8.00
2018-01-29T22:07:02.070Z,7.90
2018-01-29T22:09:30.415Z,7.70
2018-01-29T22:11:59.526Z,7.60
2018-01-29T22:14:27.904Z,7.60
2018-01-29T22:16:57.036Z,7.60
2018-01-29T22:19:25.394Z,7.50
2018-01-29T22:21:54.717Z,7.50
2018-01-29T22:24:23.054Z,7.50
2018-01-29T22:26:51.399Z,7.50
2018-01-29T22:29:20.577Z,7.50
2018-01-29T22:31:48.906Z,7.40
2018-01-29T22:34:17.259Z,7.40
2018-01-29T22:36:46.627Z,7.40
2018-01-29T22:39:14.978Z,7.40
2018-01-29T22:41:46.377Z,7.50
2018-01-29T22:44:14.946Z,7.50
2018-01-29T22:46:44.802Z,7.30
2018-01-29T22:49:13.142Z,7.30
2018-01-29T22:51:41.945Z,7.20
2018-01-29T22:54:10.309Z,7.10
2018-01-29T22:56:38.650Z,7.10
2018-01-29T22:59:07.251Z,7.00
2018-01-29T23:01:35.600Z,7.10
2018-01-29T23:04:03.955Z,7.00
2018-01-29T23:06:34.708Z,6.80
2018-01-29T23:09:03.095Z,6.70
2018-01-29T23:11:31.454Z,6.80
2018-01-29T23:14:00.180Z,6.80
2018-01-29T23:16:28.521Z,6.60
2018-01-29T23:18:58.467Z,6.40
2018-01-29T23:21:26.928Z,6.50
2018-01-29T23:23:55.646Z,6.40
2018-01-29T23:26:23.994Z,6.30
2018-01-29T23:28:52.702Z,6.20
2018-01-29T23:31:21.898Z,6.20
2018-01-29T23:33:50.226Z,6.10
2018-01-29T23:36:19.515Z,6.00
2018-01-29T23:38:47.846Z,6.00
2018-01-29T23:41:16.198Z,6.10
2018-01-29T23:43:45.678Z,6.10
2018-01-29T23:46:14.785Z,6.10
2018-01-29T23:48:43.897Z,6.00
2018-01-29T23:51:12.340Z,6.00
2018-01-29T23:53:40.679Z,6.10
2018-01-29T23:56:09.752Z,6.10
2018-01-29T23:58:38.124Z,6.10
